Time;durP1;ratioP1;P1;durP2;ratioP2;P2;SDS_P1;SDS_P2;PMS_P1;PMS_P2;Temp;Humidity;BMP_temperature;BMP_pressure;BME280_temperature;BME280_humidity;BME280_pressure;Samples;Min_cycle;Max_cycle;Signal;HPM_P1;HPM_P2
2022/10/10 00:02:39;;;;;;;4.57;1.17;;;10.60;99.90;;;;;;6024596;29;20396;-67
2022/10/10 00:05:46;;;;;;;7.18;1.42;;;10.60;99.90;;;;;;6024614;29;20302;-67
2022/10/10 00:08:51;;;;;;;3.33;1.20;;;10.60;99.90;;;;;;6024634;29;20482;-67
2022/10/10 00:11:56;;;;;;;4.72;1.33;;;10.60;99.90;;;;;;6036613;29;20269;-67
2022/10/10 00:15:01;;;;;;;1.65;1.10;;;10.60;99.90;;;;;;6047258;29;20626;-67
2022/10/10 00:18:07;;;;;;;3.63;1.08;;;10.50;99.90;;;;;;6047209;29;20282;-67
2022/10/10 00:21:13;;;;;;;2.90;1.20;;;10.40;99.90;;;;;;6047277;29;20297;-67
2022/10/10 00:24:18;;;;;;;1.35;1.10;;;10.40;99.90;;;;;;6047211;29;20301;-67
2022/10/10 00:27:23;;;;;;;6.88;1.25;;;10.40;99.90;;;;;;6047680;29;20278;-67
2022/10/10 00:30:28;;;;;;;4.72;1.65;;;10.40;99.90;;;;;;6047241;29;20326;-67
2022/10/10 00:33:33;;;;;;;1.15;1.00;;;10.30;99.90;;;;;;6046902;29;20298;-67
2022/10/10 00:36:39;;;;;;;1.33;1.30;;;10.30;99.90;;;;;;6047556;29;20273;-67
2022/10/10 00:39:44;;;;;;;3.70;1.50;;;10.30;99.90;;;;;;6046771;29;20297;-67
2022/10/10 00:42:49;;;;;;;1.48;1.15;;;10.30;99.90;;;;;;6047098;29;20462;-67
2022/10/10 00:45:54;;;;;;;2.63;1.50;;;10.30;99.90;;;;;;6046232;29;20492;-67
2022/10/10 00:48:59;;;;;;;3.85;1.27;;;10.30;99.90;;;;;;6048238;29;20301;-67
2022/10/10 00:52:08;;;;;;;1.77;1.48;;;10.30;99.90;;;;;;6051988;29;20281;-66
2022/10/10 00:55:14;;;;;;;1.33;1.27;;;10.30;99.90;;;;;;6051451;29;20306;-67
2022/10/10 00:58:19;;;;;;;1.77;1.10;;;10.30;99.90;;;;;;6051113;29;20313;-66
2022/10/10 01:01:24;;;;;;;2.55;1.25;;;10.20;99.90;;;;;;6051542;29;20302;-66
2022/10/10 01:04:35;;;;;;;1.88;1.27;;;10.20;99.90;;;;;;6051232;29;20297;-66
2022/10/10 01:07:42;;;;;;;4.47;1.42;;;10.20;99.90;;;;;;6051303;29;20306;-67
2022/10/10 01:11:06;;;;;;;1.40;1.35;;;10.10;99.90;;;;;;6047916;29;20483;-67
2022/10/10 01:14:21;;;;;;;1.98;1.20;;;10.10;99.90;;;;;;6027803;29;20613;-67
2022/10/10 01:17:33;;;;;;;7.03;1.60;;;10.10;99.90;;;;;;6028565;29;20338;-66
2022/10/10 01:21:08;;;;;;;7.45;1.40;;;10.00;99.90;;;;;;6027884;29;20314;-66
2022/10/10 01:24:40;;;;;;;3.00;1.35;;;10.00;99.90;;;;;;6024171;29;20307;-66
2022/10/10 01:27:48;;;;;;;3.30;1.60;;;9.90;99.90;;;;;;6027847;29;20271;-67
2022/10/10 01:30:56;;;;;;;5.53;1.45;;;9.90;99.90;;;;;;6027857;29;20306;-67
2022/10/10 01:34:07;;;;;;;1.60;1.40;;;10.00;99.90;;;;;;6027482;29;20302;-67
2022/10/10 01:37:19;;;;;;;3.47;1.50;;;9.90;99.90;;;;;;6028031;29;20272;-66
2022/10/10 01:40:29;;;;;;;3.53;1.35;;;9.90;99.90;;;;;;6027404;29;20310;-66
2022/10/10 01:43:36;;;;;;;3.72;1.27;;;9.90;99.90;;;;;;6027412;29;20294;-67
2022/10/10 01:46:42;;;;;;;4.97;1.60;;;9.80;99.90;;;;;;6027811;29;20278;-66
2022/10/10 01:49:51;;;;;;;2.83;1.27;;;9.80;99.90;;;;;;6027583;29;20299;-66
2022/10/10 01:53:09;;;;;;;2.67;1.17;;;9.80;99.90;;;;;;6026925;29;20282;-67
2022/10/10 01:56:22;;;;;;;4.32;1.50;;;9.80;99.90;;;;;;6027747;29;20279;-67
2022/10/10 01:59:39;;;;;;;1.17;1.05;;;9.80;99.90;;;;;;6026918;29;20324;-67
2022/10/10 02:02:52;;;;;;;1.67;1.20;;;9.80;99.90;;;;;;6027287;29;20294;-66
2022/10/10 02:06:02;;;;;;;4.07;1.20;;;9.80;99.90;;;;;;6026409;29;20274;-67
2022/10/10 02:09:12;;;;;;;2.22;1.30;;;9.80;99.90;;;;;;6026633;29;20311;-67
2022/10/10 02:12:16;;;;;;;2.05;1.15;;;9.80;99.90;;;;;;6041936;29;20274;-67
2022/10/10 02:15:24;;;;;;;3.03;1.45;;;9.80;99.90;;;;;;6049748;29;20314;-66
2022/10/10 02:18:32;;;;;;;3.47;1.17;;;9.80;99.90;;;;;;6049786;29;20294;-67
2022/10/10 02:21:38;;;;;;;1.83;1.45;;;9.80;99.90;;;;;;6050179;29;20297;-66
2022/10/10 02:24:43;;;;;;;1.13;1.13;;;9.70;99.90;;;;;;6049608;29;20298;-66
2022/10/10 02:27:54;;;;;;;1.17;1.17;;;9.80;99.90;;;;;;6050113;29;20278;-67
2022/10/10 02:31:04;;;;;;;3.92;1.23;;;9.80;99.90;;;;;;6049012;29;20283;-66
2022/10/10 02:34:15;;;;;;;3.42;1.30;;;9.70;99.90;;;;;;6049155;29;20297;-67
2022/10/10 02:37:21;;;;;;;1.98;1.10;;;9.60;99.90;;;;;;6049616;29;20578;-66
2022/10/10 02:40:31;;;;;;;5.35;1.40;;;9.70;99.90;;;;;;6048953;29;20298;-66
2022/10/10 02:43:36;;;;;;;2.08;1.00;;;9.70;99.90;;;;;;6049199;29;20322;-66
2022/10/10 02:46:42;;;;;;;4.78;1.20;;;9.70;99.90;;;;;;6049286;29;20274;-66
2022/10/10 02:49:48;;;;;;;1.50;1.38;;;9.70;99.90;;;;;;6049104;29;20314;-67
2022/10/10 02:52:53;;;;;;;5.03;1.50;;;9.70;99.90;;;;;;6049270;29;20278;-67
2022/10/10 02:55:58;;;;;;;1.88;1.55;;;9.70;99.90;;;;;;6047951;29;20279;-67
2022/10/10 02:59:02;;;;;;;1.65;1.20;;;9.80;99.90;;;;;;6048871;29;20306;-67
2022/10/10 03:02:08;;;;;;;5.03;1.38;;;9.60;99.90;;;;;;6033275;29;20298;-67
2022/10/10 03:05:15;;;;;;;2.58;1.40;;;9.50;99.90;;;;;;6035662;29;20310;-67
2022/10/10 03:08:20;;;;;;;3.30;1.40;;;9.60;99.90;;;;;;6033940;29;20302;-67
2022/10/10 03:11:26;;;;;;;7.10;1.80;;;9.60;99.90;;;;;;6031733;29;20273;-67
2022/10/10 03:14:30;;;;;;;2.35;1.25;;;9.60;99.90;;;;;;6048440;29;20481;-67
2022/10/10 03:17:36;;;;;;;3.10;1.75;;;9.50;99.90;;;;;;6048882;29;20273;-67
2022/10/10 03:20:44;;;;;;;2.72;1.50;;;9.50;99.90;;;;;;6037065;29;20318;-67
2022/10/10 03:23:49;;;;;;;1.50;1.40;;;9.50;99.90;;;;;;6025245;29;20314;-67
2022/10/10 03:26:54;;;;;;;2.88;1.13;;;9.60;99.90;;;;;;6025741;29;20279;-66
2022/10/10 03:29:59;;;;;;;1.70;1.33;;;9.60;99.90;;;;;;6025002;29;20566;-67
2022/10/10 03:33:06;;;;;;;2.15;1.15;;;9.50;99.90;;;;;;6024845;29;20286;-67
2022/10/10 03:36:12;;;;;;;2.78;1.40;;;9.60;99.90;;;;;;6025580;29;20279;-66
2022/10/10 03:39:17;;;;;;;5.20;1.50;;;9.60;99.90;;;;;;6048075;29;20298;-66
2022/10/10 03:42:22;;;;;;;6.78;1.60;;;9.50;99.90;;;;;;6047983;29;20294;-66
2022/10/10 03:45:27;;;;;;;2.90;1.30;;;9.60;99.90;;;;;;6047973;29;20310;-67
2022/10/10 03:48:32;;;;;;;5.30;1.60;;;9.50;99.90;;;;;;6047868;29;20297;-66
2022/10/10 03:51:38;;;;;;;2.83;1.70;;;9.50;99.90;;;;;;6048276;29;20297;-66
2022/10/10 03:54:42;;;;;;;7.00;1.55;;;9.40;99.90;;;;;;6047545;29;20586;-67
2022/10/10 03:57:47;;;;;;;2.85;1.50;;;9.50;99.90;;;;;;6047774;29;20277;-66
2022/10/10 04:00:56;;;;;;;1.30;1.25;;;9.50;99.90;;;;;;6047723;29;20581;-66
2022/10/10 04:04:01;;;;;;;4.93;1.42;;;9.50;99.90;;;;;;6047475;29;20305;-66
2022/10/10 04:07:07;;;;;;;3.75;1.67;;;9.50;99.90;;;;;;6047904;29;20302;-67
2022/10/10 04:10:12;;;;;;;5.45;2.00;;;9.40;99.90;;;;;;6047392;29;20508;-66
2022/10/10 04:13:17;;;;;;;3.28;1.75;;;9.40;99.90;;;;;;6025453;29;20303;-66
2022/10/10 04:16:22;;;;;;;4.20;2.00;;;9.30;99.90;;;;;;6024422;29;20554;-67
2022/10/10 04:19:27;;;;;;;5.63;2.00;;;9.40;99.90;;;;;;6024239;29;20298;-66
2022/10/10 04:22:33;;;;;;;2.70;1.52;;;9.30;99.90;;;;;;6024293;29;20302;-67
2022/10/10 04:25:38;;;;;;;2.75;1.90;;;9.40;99.90;;;;;;6023974;29;20462;-66
2022/10/10 04:28:43;;;;;;;4.47;1.70;;;9.40;99.90;;;;;;6024061;29;20314;-66
2022/10/10 04:31:48;;;;;;;4.47;1.70;;;9.30;99.90;;;;;;6024808;29;20282;-66
2022/10/10 04:34:53;;;;;;;7.93;1.85;;;9.30;99.90;;;;;;6023641;29;20307;-67
2022/10/10 04:37:59;;;;;;;4.57;1.48;;;9.40;99.90;;;;;;6038320;29;20440;-67
2022/10/10 04:41:04;;;;;;;5.22;1.83;;;9.30;99.90;;;;;;6024123;29;20275;-67
2022/10/10 04:44:10;;;;;;;4.47;1.70;;;9.30;99.90;;;;;;6023913;29;20497;-66
2022/10/10 04:47:15;;;;;;;4.18;1.85;;;9.30;99.90;;;;;;6024337;29;20282;-67
2022/10/10 04:50:20;;;;;;;3.85;1.80;;;9.30;99.90;;;;;;6023527;29;20321;-67
2022/10/10 04:53:27;;;;;;;3.65;1.58;;;9.30;99.90;;;;;;6023924;29;20480;-67
2022/10/10 04:56:32;;;;;;;4.25;1.60;;;9.40;99.90;;;;;;6024058;29;20575;-67
2022/10/10 04:59:37;;;;;;;4.07;1.90;;;9.30;99.90;;;;;;6023932;29;20306;-67
2022/10/10 05:02:42;;;;;;;5.68;2.25;;;9.30;99.90;;;;;;6023817;29;20475;-67
2022/10/10 05:05:47;;;;;;;5.40;1.85;;;9.30;99.90;;;;;;6023693;29;20298;-67
2022/10/10 05:08:53;;;;;;;6.85;2.08;;;9.40;99.90;;;;;;6023921;29;20306;-67
2022/10/10 05:11:57;;;;;;;3.78;2.00;;;9.40;99.90;;;;;;6036034;29;20270;-67
2022/10/10 05:15:03;;;;;;;8.50;3.40;;;9.40;99.90;;;;;;6046550;29;20301;-67
2022/10/10 05:18:11;;;;;;;3.30;2.00;;;9.40;99.90;;;;;;6046379;29;20278;-67
2022/10/10 05:21:16;;;;;;;5.00;2.00;;;9.40;99.90;;;;;;6047057;29;20301;-68
2022/10/10 05:24:23;;;;;;;4.68;2.10;;;9.30;99.90;;;;;;6046637;29;20297;-67
2022/10/10 05:27:29;;;;;;;6.93;2.03;;;9.40;99.90;;;;;;6046714;29;20278;-68
2022/10/10 05:30:33;;;;;;;2.63;2.20;;;9.30;99.90;;;;;;6046509;29;20297;-67
2022/10/10 05:33:38;;;;;;;4.85;2.33;;;9.40;99.90;;;;;;6046312;29;20306;-66
2022/10/10 05:36:43;;;;;;;8.38;2.10;;;9.30;99.90;;;;;;6049327;29;20278;-66
2022/10/10 05:39:50;;;;;;;4.90;1.90;;;9.40;99.90;;;;;;6050668;29;20297;-67
2022/10/10 05:42:58;;;;;;;2.75;1.60;;;9.40;99.90;;;;;;6050015;29;20278;-67
2022/10/10 05:46:03;;;;;;;7.50;1.67;;;9.40;99.90;;;;;;6051012;29;20274;-67
2022/10/10 05:49:08;;;;;;;5.72;1.92;;;9.40;99.90;;;;;;6050111;29;20317;-67
2022/10/10 05:52:13;;;;;;;8.90;1.83;;;9.50;99.90;;;;;;6050802;29;20530;-67
2022/10/10 05:55:19;;;;;;;3.47;1.70;;;9.50;99.90;;;;;;6050162;29;20306;-67
2022/10/10 05:58:26;;;;;;;3.40;1.80;;;9.50;99.90;;;;;;6049662;29;20482;-67
2022/10/10 06:01:31;;;;;;;5.70;1.92;;;9.50;99.90;;;;;;6050512;29;20278;-66
2022/10/10 06:04:37;;;;;;;4.78;1.67;;;9.50;99.90;;;;;;6049912;29;20322;-66
2022/10/10 06:07:42;;;;;;;6.85;1.73;;;9.50;99.90;;;;;;6064002;29;20470;-66
2022/10/10 06:11:09;;;;;;;4.53;1.90;;;9.60;99.90;;;;;;6043630;29;20279;-66
2022/10/10 06:14:14;;;;;;;4.05;1.90;;;9.60;99.90;;;;;;6026861;29;20299;-66
2022/10/10 06:17:20;;;;;;;3.50;1.98;;;9.60;99.90;;;;;;6026982;29;20279;-67
2022/10/10 06:20:24;;;;;;;2.58;1.40;;;9.60;99.90;;;;;;6026264;29;20310;-68
2022/10/10 06:23:29;;;;;;;4.25;1.90;;;9.70;99.90;;;;;;6026520;29;20306;-67
2022/10/10 06:26:36;;;;;;;4.53;1.60;;;9.80;99.90;;;;;;6041052;29;20278;-67
2022/10/10 06:29:41;;;;;;;7.18;1.70;;;9.70;99.90;;;;;;6026192;29;20298;-66
2022/10/10 06:32:46;;;;;;;8.93;1.73;;;9.80;99.90;;;;;;6026342;29;20275;-66
2022/10/10 06:35:52;;;;;;;4.50;2.17;;;9.80;99.90;;;;;;6025730;29;20310;-67
2022/10/10 06:38:56;;;;;;;4.00;1.58;;;9.90;99.90;;;;;;6025815;29;20514;-67
2022/10/10 06:42:03;;;;;;;4.07;1.73;;;10.00;99.90;;;;;;6026668;29;20566;-67
2022/10/10 06:45:09;;;;;;;4.25;1.80;;;10.00;99.90;;;;;;6026014;29;20310;-67
2022/10/10 06:48:15;;;;;;;6.78;1.80;;;10.00;99.90;;;;;;6025606;29;20274;-67
2022/10/10 06:51:20;;;;;;;6.40;2.00;;;10.00;99.90;;;;;;6026213;29;20275;-66
2022/10/10 06:54:25;;;;;;;4.63;1.70;;;10.00;99.90;;;;;;6025955;29;20303;-68
2022/10/10 06:57:31;;;;;;;6.38;2.00;;;10.10;99.90;;;;;;6025984;29;20270;-67
2022/10/10 07:00:36;;;;;;;6.85;1.92;;;10.20;99.90;;;;;;6026048;29;20330;-66
2022/10/10 07:03:41;;;;;;;6.07;1.60;;;10.20;99.90;;;;;;6025645;29;20298;-67
2022/10/10 07:06:46;;;;;;;5.28;1.50;;;10.30;99.90;;;;;;6026236;29;20282;-67
2022/10/10 07:09:51;;;;;;;6.70;1.73;;;10.30;99.90;;;;;;6025495;29;20298;-66
2022/10/10 07:12:57;;;;;;;2.88;1.63;;;10.30;99.90;;;;;;6045176;29;20274;-67
2022/10/10 07:16:02;;;;;;;4.18;1.40;;;10.40;99.90;;;;;;6047612;29;20282;-67
2022/10/10 07:19:07;;;;;;;3.85;1.63;;;10.50;99.90;;;;;;6048038;29;20302;-67
2022/10/10 07:22:13;;;;;;;7.53;2.25;;;10.50;99.90;;;;;;6048257;29;20565;-67
2022/10/10 07:25:19;;;;;;;5.47;2.05;;;10.50;99.90;;;;;;6047953;29;20302;-67
2022/10/10 07:28:25;;;;;;;9.75;1.83;;;10.70;99.90;;;;;;6048163;29;20297;-66
2022/10/10 07:31:30;;;;;;;5.80;1.70;;;10.70;99.90;;;;;;6048554;29;20558;-67
2022/10/10 07:34:37;;;;;;;5.55;1.90;;;10.70;99.90;;;;;;6048229;29;20305;-67
2022/10/10 07:37:42;;;;;;;2.22;1.40;;;10.80;99.90;;;;;;6048565;29;20561;-67
2022/10/10 07:40:47;;;;;;;4.10;1.38;;;10.80;99.90;;;;;;6047617;29;20614;-67
2022/10/10 07:43:57;;;;;;;4.72;2.10;;;10.90;99.90;;;;;;6047903;29;20302;-67
2022/10/10 07:47:02;;;;;;;3.80;1.45;;;10.90;99.90;;;;;;6047874;29;20274;-67
2022/10/10 07:50:09;;;;;;;4.32;1.50;;;10.90;99.90;;;;;;6047582;29;20298;-67
2022/10/10 07:53:15;;;;;;;5.85;1.50;;;11.00;99.90;;;;;;6047654;29;20274;-67
2022/10/10 07:56:20;;;;;;;4.85;1.60;;;11.10;99.90;;;;;;6048289;29;20278;-67
2022/10/10 07:59:27;;;;;;;6.07;1.48;;;11.20;99.90;;;;;;6046916;29;20301;-66
2022/10/10 08:02:32;;;;;;;3.70;1.67;;;11.20;99.90;;;;;;6047947;29;20274;-66
2022/10/10 08:05:40;;;;;;;5.85;1.63;;;11.20;99.90;;;;;;6047353;29;20369;-66
2022/10/10 08:08:49;;;;;;;4.55;1.75;;;11.30;99.90;;;;;;6047050;29;20343;-67
2022/10/10 08:11:55;;;;;;;3.10;1.50;;;11.30;99.90;;;;;;6035834;29;20275;-67
2022/10/10 08:15:02;;;;;;;1.55;1.40;;;11.40;99.90;;;;;;6023960;29;20310;-67
2022/10/10 08:18:08;;;;;;;6.25;1.73;;;11.50;99.90;;;;;;6024088;29;20278;-67
2022/10/10 08:21:15;;;;;;;1.60;1.50;;;11.50;99.90;;;;;;6024303;29;20275;-67
2022/10/10 08:24:20;;;;;;;5.65;1.48;;;11.70;99.90;;;;;;6023987;29;20302;-67
2022/10/10 08:27:25;;;;;;;2.78;1.35;;;11.80;99.90;;;;;;6024591;29;20279;-67
2022/10/10 08:30:31;;;;;;;4.53;1.30;;;11.80;99.90;;;;;;6023620;29;20307;-67
2022/10/10 08:33:37;;;;;;;3.15;1.40;;;11.90;99.90;;;;;;6023918;29;20301;-67
2022/10/10 08:36:42;;;;;;;1.58;1.23;;;11.90;99.90;;;;;;6024478;29;20287;-67
2022/10/10 08:39:47;;;;;;;7.35;1.25;;;11.90;99.90;;;;;;6024116;29;20298;-66
2022/10/10 08:42:53;;;;;;;5.25;1.65;;;12.00;99.90;;;;;;6024372;29;20278;-67
2022/10/10 08:46:15;;;;;;;7.13;1.90;;;12.00;99.90;;;;;;6023135;29;20298;-67
2022/10/10 08:49:25;;;;;;;3.90;1.45;;;12.10;99.90;;;;;;6023864;29;20378;-67
2022/10/10 08:52:33;;;;;;;9.25;1.48;;;12.20;99.90;;;;;;6024179;29;20279;-67
2022/10/10 08:55:42;;;;;;;3.03;1.58;;;12.20;99.90;;;;;;6023923;29;20314;-68
2022/10/10 08:58:54;;;;;;;3.45;1.02;;;12.30;99.90;;;;;;6023616;29;20302;-67
2022/10/10 09:02:28;;;;;;;6.72;1.83;;;12.30;99.90;;;;;;6023916;29;20270;-67
2022/10/10 09:06:08;;;;;;;5.00;1.30;;;12.30;99.90;;;;;;6023026;29;20314;-67
2022/10/10 09:09:20;;;;;;;3.63;1.50;;;12.40;99.90;;;;;;6024060;29;20618;-67
2022/10/10 09:12:32;;;;;;;3.25;1.40;;;12.40;99.90;;;;;;6044114;29;20422;-66
2022/10/10 09:15:55;;;;;;;8.40;1.60;;;12.40;99.90;;;;;;6050858;29;20305;-67
2022/10/10 09:19:09;;;;;;;5.95;1.80;;;12.40;99.90;;;;;;6051198;29;20314;-67
2022/10/10 09:22:23;;;;;;;1.42;1.33;;;12.50;99.90;;;;;;6051466;29;20323;-66
2022/10/10 09:25:32;;;;;;;8.65;2.05;;;12.50;99.90;;;;;;6051005;29;20301;-67
2022/10/10 09:28:40;;;;;;;5.13;2.10;;;12.60;99.90;;;;;;6050826;29;20505;-67
2022/10/10 09:31:50;;;;;;;6.53;1.88;;;12.70;99.90;;;;;;6051189;29;20279;-67
2022/10/10 09:35:04;;;;;;;5.00;1.42;;;12.80;99.90;;;;;;6050563;29;20505;-67
2022/10/10 09:38:28;;;;;;;4.72;1.40;;;12.80;99.90;;;;;;6050524;29;20282;-67
2022/10/10 09:41:36;;;;;;;10.23;1.48;;;12.80;99.90;;;;;;6051038;29;20291;-67
2022/10/10 09:44:42;;;;;;;5.40;2.03;;;12.80;99.90;;;;;;6050476;29;20355;-67
2022/10/10 09:47:55;;;;;;;6.47;1.67;;;12.70;99.90;;;;;;6050659;29;20297;-67
2022/10/10 09:51:02;;;;;;;1.60;1.40;;;12.70;99.90;;;;;;6049484;29;20282;-68
2022/10/10 09:54:07;;;;;;;6.53;1.75;;;12.80;99.90;;;;;;6050123;29;20302;-67
2022/10/10 09:57:16;;;;;;;3.63;1.40;;;12.80;99.90;;;;;;6050575;29;20486;-68
2022/10/10 10:00:36;;;;;;;3.85;1.58;;;13.00;99.90;;;;;;6050035;29;20303;-67
2022/10/10 10:03:41;;;;;;;2.10;1.33;;;13.10;99.90;;;;;;6049949;29;20301;-67
2022/10/10 10:06:50;;;;;;;3.90;1.98;;;13.20;99.90;;;;;;6050010;29;20321;-67
2022/10/10 10:09:58;;;;;;;6.28;1.73;;;13.30;99.90;;;;;;6049686;29;20297;-67
2022/10/10 10:13:03;;;;;;;3.67;1.60;;;13.40;99.90;;;;;;6029370;29;20271;-67
2022/10/10 10:16:11;;;;;;;5.03;1.52;;;13.40;99.90;;;;;;6026712;29;20303;-66
2022/10/10 10:19:32;;;;;;;10.38;2.13;;;13.50;99.90;;;;;;6026486;29;20482;-66
2022/10/10 10:22:39;;;;;;;10.35;1.80;;;13.40;99.90;;;;;;6026598;29;20271;-67
2022/10/10 10:25:44;;;;;;;6.50;1.70;;;13.50;99.90;;;;;;6026552;29;20481;-67
2022/10/10 10:28:51;;;;;;;8.60;2.10;;;13.50;99.90;;;;;;6026487;29;20302;-67
2022/10/10 10:32:09;;;;;;;9.45;1.60;;;13.50;99.90;;;;;;6027098;29;20283;-67
2022/10/10 10:35:23;;;;;;;6.50;2.00;;;13.50;99.90;;;;;;6040538;29;20480;-68
2022/10/10 10:38:39;;;;;;;5.93;1.60;;;13.60;99.90;;;;;;6025973;29;20307;-66
2022/10/10 10:41:51;;;;;;;3.42;1.48;;;13.60;99.90;;;;;;6026721;29;20279;-67
2022/10/10 10:45:01;;;;;;;5.95;1.50;;;13.50;99.90;;;;;;6026248;29;20378;-67
2022/10/10 10:48:15;;;;;;;6.95;1.77;;;13.60;99.90;;;;;;6026065;29;20298;-67
2022/10/10 10:51:48;;;;;;;7.55;1.88;;;13.70;99.90;;;;;;6026437;29;20278;-67
2022/10/10 10:55:13;;;;;;;6.15;1.75;;;13.70;99.90;;;;;;6025904;29;20299;-67
2022/10/10 10:58:57;;;;;;;10.10;2.33;;;13.70;99.90;;;;;;6025884;29;20298;-68
2022/10/10 11:02:42;;;;;;;5.25;1.50;;;13.80;99.90;;;;;;6030084;29;20436;-67
2022/10/10 11:06:21;;;;;;;2.25;1.88;;;13.70;99.90;;;;;;6025136;29;20271;-68
2022/10/10 11:09:31;;;;;;;3.83;1.45;;;13.70;99.90;;;;;;6024983;29;20306;-67
2022/10/10 11:13:03;;;;;;;6.13;1.40;;;13.70;99.90;;;;;;6044866;29;20274;-67
2022/10/10 11:16:17;;;;;;;4.13;1.70;;;13.70;99.90;;;;;;6047687;29;20278;-68
2022/10/10 11:19:47;;;;;;;5.00;1.60;;;13.80;99.90;;;;;;6048495;29;20481;-68
2022/10/10 11:22:56;;;;;;;6.25;1.60;;;13.80;99.90;;;;;;6048644;29;20270;-66
2022/10/10 11:26:06;;;;;;;6.55;1.88;;;13.90;99.90;;;;;;6047871;29;20270;-67
2022/10/10 11:29:16;;;;;;;8.85;2.00;;;13.90;99.90;;;;;;6047963;29;20614;-67
2022/10/10 11:32:27;;;;;;;6.75;1.70;;;13.90;99.90;;;;;;6047962;29;20278;-68
2022/10/10 11:35:37;;;;;;;4.32;1.73;;;14.00;99.90;;;;;;6047563;29;20331;-68
2022/10/10 11:38:48;;;;;;;5.25;1.95;;;14.00;99.90;;;;;;6048156;29;20309;-67
2022/10/10 11:41:55;;;;;;;4.57;1.50;;;14.00;99.90;;;;;;6048151;29;20273;-67
2022/10/10 11:45:08;;;;;;;9.02;1.80;;;14.00;99.90;;;;;;6047800;29;20297;-67
2022/10/10 11:48:27;;;;;;;2.75;1.55;;;14.10;99.90;;;;;;6047411;29;20294;-67
2022/10/10 11:51:48;;;;;;;5.00;1.60;;;14.10;99.90;;;;;;6048372;29;20278;-68
2022/10/10 11:54:58;;;;;;;3.03;1.85;;;14.10;99.90;;;;;;6047698;29;20461;-67
2022/10/10 11:58:28;;;;;;;14.57;2.10;;;14.20;99.90;;;;;;6047657;29;20286;-68
2022/10/10 12:01:38;;;;;;;3.50;1.50;;;14.20;99.90;;;;;;6047548;29;20270;-68
2022/10/10 12:04:42;;;;;;;5.47;1.50;;;14.20;99.90;;;;;;6047094;29;20297;-67
2022/10/10 12:08:02;;;;;;;5.25;1.75;;;14.20;99.90;;;;;;6047756;29;20506;-67
2022/10/10 12:11:13;;;;;;;3.30;1.67;;;14.30;99.90;;;;;;6041731;29;20346;-67
2022/10/10 12:14:21;;;;;;;9.52;1.67;;;14.20;99.90;;;;;;6024052;29;20298;-67
2022/10/10 12:17:30;;;;;;;5.78;1.70;;;14.20;99.90;;;;;;6024619;29;20458;-66
2022/10/10 12:20:36;;;;;;;3.45;1.70;;;14.20;99.90;;;;;;6024306;29;20302;-67
2022/10/10 12:23:42;;;;;;;9.00;1.67;;;14.30;99.90;;;;;;6024524;29;20440;-68
2022/10/10 12:27:42;;;;;;;6.40;1.80;;;14.30;99.90;;;;;;6024803;29;20299;-67
2022/10/10 12:31:28;;;;;;;3.22;1.77;;;14.30;99.90;;;;;;6024241;29;20479;-66
2022/10/10 12:34:56;;;;;;;6.18;1.85;;;14.30;99.90;;;;;;6024111;29;20302;-67
2022/10/10 12:38:17;;;;;;;3.25;1.67;;;14.30;99.90;;;;;;6037650;29;20305;-68
2022/10/10 12:41:22;;;;;;;5.20;1.83;;;14.40;99.90;;;;;;6024596;29;20443;-67
2022/10/10 12:44:43;;;;;;;5.45;2.10;;;14.40;99.90;;;;;;6024369;29;20475;-68
2022/10/10 12:47:49;;;;;;;6.35;1.88;;;14.40;99.90;;;;;;6029098;29;20294;-67
2022/10/10 12:51:21;;;;;;;9.13;1.60;;;14.30;99.90;;;;;;6028259;29;20282;-68
2022/10/10 12:54:30;;;;;;;6.82;1.80;;;14.30;99.90;;;;;;6028383;29;20306;-68
2022/10/10 12:57:40;;;;;;;2.08;1.80;;;14.20;99.90;;;;;;6028559;29;20278;-68
2022/10/10 13:00:47;;;;;;;3.15;1.73;;;14.20;99.90;;;;;;6028436;29;20316;-66
2022/10/10 13:03:53;;;;;;;2.22;1.63;;;14.10;99.90;;;;;;6028264;29;20298;-66
2022/10/10 13:07:01;;;;;;;5.93;1.88;;;14.10;99.90;;;;;;6028856;29;20302;-67
2022/10/10 13:10:19;;;;;;;5.55;1.98;;;14.10;99.90;;;;;;6028059;29;20306;-68
2022/10/10 13:13:24;;;;;;;2.72;2.05;;;14.10;99.90;;;;;;6050975;29;20305;-68
2022/10/10 13:16:29;;;;;;;8.10;1.85;;;14.00;99.90;;;;;;6051686;29;20278;-67
2022/10/10 13:19:41;;;;;;;4.95;1.60;;;14.10;99.90;;;;;;6051048;29;20321;-66
2022/10/10 13:22:48;;;;;;;5.90;1.92;;;14.10;99.90;;;;;;6051546;29;20274;-67
2022/10/10 13:25:52;;;;;;;3.13;1.40;;;14.10;99.90;;;;;;6050878;29;20478;-66
2022/10/10 13:29:00;;;;;;;7.22;2.20;;;14.10;99.90;;;;;;6050399;29;20302;-67
2022/10/10 13:32:08;;;;;;;2.83;1.90;;;14.10;99.90;;;;;;6051395;29;20270;-67
2022/10/10 13:35:15;;;;;;;3.28;1.77;;;14.00;99.90;;;;;;6050679;29;20305;-67
2022/10/10 13:38:25;;;;;;;9.25;1.83;;;14.00;99.90;;;;;;6050478;29;20604;-67
2022/10/10 13:41:30;;;;;;;6.57;2.15;;;14.00;99.90;;;;;;6051011;29;20273;-67
2022/10/10 13:44:50;;;;;;;3.55;1.40;;;14.00;99.90;;;;;;6050383;29;20325;-67
2022/10/10 13:47:56;;;;;;;3.88;2.20;;;14.00;99.90;;;;;;6050405;29;20458;-67
2022/10/10 13:51:05;;;;;;;4.40;1.58;;;14.00;99.90;;;;;;6049586;29;20595;-68
2022/10/10 13:54:38;;;;;;;6.15;1.85;;;13.90;99.90;;;;;;6049961;29;20488;-66
2022/10/10 13:57:43;;;;;;;7.93;1.50;;;13.90;99.90;;;;;;6044330;29;20278;-66
2022/10/10 14:00:55;;;;;;;4.57;1.75;;;13.80;99.90;;;;;;6049939;29;20609;-66
2022/10/10 14:04:20;;;;;;;2.53;1.88;;;13.80;99.90;;;;;;6049637;29;20297;-66
2022/10/10 14:07:27;;;;;;;4.65;1.45;;;13.80;99.90;;;;;;6048674;29;20618;-66
2022/10/10 14:10:35;;;;;;;2.33;1.70;;;13.80;99.90;;;;;;6048773;29;20307;-67
2022/10/10 14:13:40;;;;;;;3.03;1.85;;;13.70;99.90;;;;;;6026839;29;20387;-66
2022/10/10 14:16:45;;;;;;;1.80;1.70;;;13.70;99.90;;;;;;6026669;29;20279;-66
2022/10/10 14:19:51;;;;;;;5.35;1.73;;;13.70;99.90;;;;;;6026763;29;20303;-66
2022/10/10 14:23:00;;;;;;;3.17;1.85;;;13.60;99.90;;;;;;6027207;29;20551;-66
2022/10/10 14:26:07;;;;;;;4.53;2.25;;;13.60;99.90;;;;;;6025882;29;20283;-67
2022/10/10 14:29:14;;;;;;;3.38;1.60;;;13.50;99.90;;;;;;6026250;29;20306;-67
2022/10/10 14:32:20;;;;;;;4.32;1.80;;;13.50;99.90;;;;;;6026897;29;20270;-67
2022/10/10 14:35:33;;;;;;;5.68;1.95;;;13.50;99.90;;;;;;6025949;29;20497;-66
2022/10/10 14:38:37;;;;;;;8.45;1.90;;;13.50;99.90;;;;;;6026253;29;20734;-66
2022/10/10 14:41:44;;;;;;;10.18;2.78;;;13.40;99.90;;;;;;6026890;29;20275;-67
2022/10/10 14:44:49;;;;;;;5.25;1.77;;;13.40;99.90;;;;;;6026239;29;20299;-67
2022/10/10 14:47:55;;;;;;;5.47;1.90;;;13.40;99.90;;;;;;6026584;29;20311;-68
2022/10/10 14:50:59;;;;;;;6.90;1.70;;;13.30;99.90;;;;;;6025240;29;20298;-68
2022/10/10 14:54:24;;;;;;;3.00;1.67;;;13.40;99.90;;;;;;6026031;29;20303;-67
2022/10/10 14:57:31;;;;;;;4.78;1.90;;;13.40;99.90;;;;;;6025993;29;20274;-67
2022/10/10 15:00:36;;;;;;;5.68;1.95;;;13.40;99.90;;;;;;6025774;29;20305;-68
2022/10/10 15:03:40;;;;;;;6.40;2.20;;;13.30;99.90;;;;;;6025483;29;20298;-67
2022/10/10 15:06:45;;;;;;;2.70;1.98;;;13.20;99.90;;;;;;6026013;29;20274;-67
2022/10/10 15:10:12;;;;;;;4.15;1.80;;;13.20;99.90;;;;;;6025166;29;20307;-67
2022/10/10 15:13:40;;;;;;;2.67;2.00;;;13.20;99.90;;;;;;6025181;29;20303;-68
2022/10/10 15:16:44;;;;;;;8.38;2.30;;;13.10;99.90;;;;;;6026183;29;20274;-67
2022/10/10 15:19:49;;;;;;;3.03;2.13;;;13.10;99.90;;;;;;6025388;29;20298;-68
2022/10/10 15:22:54;;;;;;;8.05;1.90;;;13.10;99.90;;;;;;6025760;29;20298;-68
2022/10/10 15:26:00;;;;;;;5.55;2.00;;;13.00;99.90;;;;;;6024737;29;20278;-67
2022/10/10 15:29:06;;;;;;;4.38;1.92;;;13.00;99.90;;;;;;6025565;29;20306;-68
2022/10/10 15:32:13;;;;;;;7.47;2.38;;;13.00;99.90;;;;;;6025901;29;20314;-67
2022/10/10 15:35:23;;;;;;;7.72;2.50;;;13.00;99.90;;;;;;6025163;29;20314;-67
2022/10/10 15:38:30;;;;;;;6.30;2.15;;;12.90;99.90;;;;;;6025194;29;20314;-67
2022/10/10 15:41:34;;;;;;;2.45;2.00;;;12.90;99.90;;;;;;6025366;29;20278;-66
2022/10/10 15:44:45;;;;;;;2.33;2.10;;;12.90;99.90;;;;;;6025157;29;20306;-69
2022/10/10 15:47:51;;;;;;;5.53;2.13;;;12.90;99.90;;;;;;6025092;29;20274;-66
2022/10/10 15:50:55;;;;;;;3.60;2.15;;;12.90;99.90;;;;;;6024650;29;20484;-68
2022/10/10 15:54:01;;;;;;;6.63;2.25;;;12.80;99.90;;;;;;6025243;29;20302;-67
2022/10/10 15:57:06;;;;;;;2.40;2.20;;;12.80;99.90;;;;;;6025081;29;20457;-67
2022/10/10 16:00:15;;;;;;;3.20;2.17;;;12.80;99.90;;;;;;6024458;29;20298;-67
2022/10/10 16:03:20;;;;;;;5.63;1.88;;;12.80;99.90;;;;;;6024333;29;20599;-68
2022/10/10 16:06:26;;;;;;;5.63;2.53;;;12.70;99.90;;;;;;6025151;29;20324;-67
2022/10/10 16:09:30;;;;;;;2.55;2.13;;;12.70;99.90;;;;;;6024097;29;20488;-66
2022/10/10 16:12:35;;;;;;;2.70;2.22;;;12.70;99.90;;;;;;6041391;29;20266;-68
2022/10/10 16:15:42;;;;;;;4.18;2.00;;;12.60;99.90;;;;;;6047312;29;20306;-67
2022/10/10 16:18:47;;;;;;;7.13;2.55;;;12.60;99.90;;;;;;6047071;29;20298;-67
2022/10/10 16:21:51;;;;;;;7.15;2.00;;;12.50;99.90;;;;;;6047303;29;20281;-67
2022/10/10 16:24:57;;;;;;;3.60;2.60;;;12.50;99.90;;;;;;6046990;29;20301;-67
2022/10/10 16:28:21;;;;;;;6.28;2.50;;;12.50;99.90;;;;;;6046542;29;20318;-66
2022/10/10 16:31:29;;;;;;;3.67;2.10;;;12.50;99.90;;;;;;6047140;29;20293;-67